sensor_id;sensor_type;location;lat;lon;timestamp;pressure;altitude;pressure_sealevel;temperature;humidity
45789;BME280;31492;54.856;26.318;2022-12-29T02:24:35;996;;;0.4;100
45789;BME280;31492;54.856;26.318;2022-12-29T02:29:37;995.4;;;0.6;100
45789;BME280;31492;54.856;26.318;2022-12-29T02:34:31;995.3;;;0.6;100
45789;BME280;31492;54.856;26.318;2022-12-29T02:39:31;995.3;;;0.6;100
45789;BME280;31492;54.856;26.318;2022-12-29T02:44:33;995.3;;;0.6;100
45789;BME280;31492;54.856;26.318;2022-12-29T02:49:30;995.3;;;0.7;100
45789;BME280;31492;54.856;26.318;2022-12-29T02:54:39;995.2;;;0.7;100
45789;BME280;31492;54.856;26.318;2022-12-29T02:59:29;995.2;;;0.7;100
45789;BME280;31492;54.856;26.318;2022-12-29T03:04:42;995.1;;;0.7;100
45789;BME280;31492;54.856;26.318;2022-12-29T03:09:50;995.1;;;0.7;100
45789;BME280;31492;54.856;26.318;2022-12-29T03:14:44;995.1;;;0.7;100
45789;BME280;31492;54.856;26.318;2022-12-29T03:19:51;995.1;;;0.7;100
45789;BME280;31492;54.856;26.318;2022-12-29T03:24:30;995.2;;;0.8;100
45789;BME280;31492;54.856;26.318;2022-12-29T03:29:30;995.2;;;0.8;100
45789;BME280;31492;54.856;26.318;2022-12-29T03:34:29;995.1;;;0.8;100
45789;BME280;31492;54.856;26.318;2022-12-29T03:39:41;995.1;;;0.8;100
45789;BME280;31492;54.856;26.318;2022-12-29T03:44:31;995.1;;;0.9;100
45789;BME280;31492;54.856;26.318;2022-12-29T03:49:39;995.1;;;0.9;100
45789;BME280;31492;54.856;26.318;2022-12-29T03:54:51;995.1;;;0.9;100
45789;BME280;31492;54.856;26.318;2022-12-29T03:59:35;995.1;;;0.9;100
45789;BME280;31492;54.856;26.318;2022-12-29T04:04:29;995.1;;;0.9;100
45789;BME280;31492;54.856;26.318;2022-12-29T04:09:49;995.1;;;0.9;100
45789;BME280;31492;54.856;26.318;2022-12-29T04:14:39;995.1;;;0.9;100
45789;BME280;31492;54.856;26.318;2022-12-29T04:19:29;995.1;;;1;100
45789;BME280;31492;54.856;26.318;2022-12-29T04:24:39;995.1;;;1;100
45789;BME280;31492;54.856;26.318;2022-12-29T04:29:49;995.1;;;1;100
45789;BME280;31492;54.856;26.318;2022-12-29T04:34:29;995.1;;;1;100
45789;BME280;31492;54.856;26.318;2022-12-29T05:39:29;995.1;;;1.1;100
45789;BME280;31492;54.856;26.318;2022-12-29T05:45:01;995.1;;;1.1;100
45789;BME280;31492;54.856;26.318;2022-12-29T05:49:29;995.1;;;1.1;100
45789;BME280;31492;54.856;26.318;2022-12-29T05:54:37;995.1;;;1.2;100
45789;BME280;31492;54.856;26.318;2022-12-29T05:59:49;995;;;1.2;100
45789;BME280;31492;54.856;26.318;2022-12-29T06:04:49;995;;;1.3;100
45789;BME280;31492;54.856;26.318;2022-12-29T06:09:39;995;;;1.2;100
45789;BME280;31492;54.856;26.318;2022-12-29T06:14:29;995;;;1.2;100
45789;BME280;31492;54.856;26.318;2022-12-29T06:19:29;995;;;1.2;100
45789;BME280;31492;54.856;26.318;2022-12-29T06:24:29;995;;;1.2;100
45789;BME280;31492;54.856;26.318;2022-12-29T06:29:29;995;;;1.2;100
45789;BME280;31492;54.856;26.318;2022-12-29T06:34:39;995;;;1.2;100
45789;BME280;31492;54.856;26.318;2022-12-29T06:39:39;995;;;1.2;100
45789;BME280;31492;54.856;26.318;2022-12-29T06:44:49;995;;;1.2;100
45789;BME280;31492;54.856;26.318;2022-12-29T06:49:39;995;;;1.2;100
45789;BME280;31492;54.856;26.318;2022-12-29T06:54:30;994.9;;;1.2;100
45789;BME280;31492;54.856;26.318;2022-12-29T06:59:39;994.9;;;1.2;100
45789;BME280;31492;54.856;26.318;2022-12-29T07:04:29;994.9;;;1.2;100
45789;BME280;31492;54.856;26.318;2022-12-29T07:09:49;995;;;1.2;100
45789;BME280;31492;54.856;26.318;2022-12-29T07:14:29;995;;;1.2;100
45789;BME280;31492;54.856;26.318;2022-12-29T07:19:29;995.1;;;1.2;100
45789;BME280;31492;54.856;26.318;2022-12-29T07:24:39;995;;;1.2;100
45789;BME280;31492;54.856;26.318;2022-12-29T07:29:39;995;;;1.2;100
45789;BME280;31492;54.856;26.318;2022-12-29T07:34:37;995;;;1.2;100
45789;BME280;31492;54.856;26.318;2022-12-29T07:39:39;995;;;1.2;100
45789;BME280;31492;54.856;26.318;2022-12-29T07:44:49;994.9;;;1.2;100
45789;BME280;31492;54.856;26.318;2022-12-29T07:49:39;994.9;;;1.2;100
45789;BME280;31492;54.856;26.318;2022-12-29T07:54:57;994.8;;;1.3;100
45789;BME280;31492;54.856;26.318;2022-12-29T07:59:29;994.8;;;1.3;100
45789;BME280;31492;54.856;26.318;2022-12-29T08:04:29;994.8;;;1.3;100
45789;BME280;31492;54.856;26.318;2022-12-29T08:09:29;994.8;;;1.3;100
45789;BME280;31492;54.856;26.318;2022-12-29T08:14:29;994.7;;;1.4;100
45789;BME280;31492;54.856;26.318;2022-12-29T08:19:49;994.8;;;1.3;100
45789;BME280;31492;54.856;26.318;2022-12-29T08:24:39;994.9;;;1.3;100
45789;BME280;31492;54.856;26.318;2022-12-29T08:29:39;994.8;;;1.3;100
45789;BME280;31492;54.856;26.318;2022-12-29T08:34:30;994.8;;;1.4;100
45789;BME280;31492;54.856;26.318;2022-12-29T08:39:37;994.8;;;1.4;100
45789;BME280;31492;54.856;26.318;2022-12-29T08:44:37;994.8;;;1.5;100
45789;BME280;31492;54.856;26.318;2022-12-29T08:49:39;994.7;;;1.5;100
45789;BME280;31492;54.856;26.318;2022-12-29T08:54:39;994.6;;;1.5;100
45789;BME280;31492;54.856;26.318;2022-12-29T09:34:40;994.5;;;1.6;100
45789;BME280;31492;54.856;26.318;2022-12-29T09:39:47;994.3;;;1.6;100
45789;BME280;31492;54.856;26.318;2022-12-29T09:44:31;994.3;;;1.6;100
45789;BME280;31492;54.856;26.318;2022-12-29T09:49:40;994.3;;;1.7;100
45789;BME280;31492;54.856;26.318;2022-12-29T09:54:41;994.3;;;1.7;100
45789;BME280;31492;54.856;26.318;2022-12-29T09:59:34;994.3;;;1.7;100
45789;BME280;31492;54.856;26.318;2022-12-29T10:04:47;994.3;;;1.7;100
45789;BME280;31492;54.856;26.318;2022-12-29T10:09:31;994.3;;;1.8;100
45789;BME280;31492;54.856;26.318;2022-12-29T10:15:00;994.3;;;1.7;100
45789;BME280;31492;54.856;26.318;2022-12-29T10:19:53;994.3;;;1.7;100
45789;BME280;31492;54.856;26.318;2022-12-29T10:24:50;994.3;;;1.7;100
45789;BME280;31492;54.856;26.318;2022-12-29T10:29:32;994.2;;;1.7;100
45789;BME280;31492;54.856;26.318;2022-12-29T10:34:50;994.2;;;1.6;100
45789;BME280;31492;54.856;26.318;2022-12-29T10:39:30;994.2;;;1.7;100
45789;BME280;31492;54.856;26.318;2022-12-29T10:44:40;994.1;;;1.6;100
45789;BME280;31492;54.856;26.318;2022-12-29T10:49:39;994;;;1.6;100
45789;BME280;31492;54.856;26.318;2022-12-29T10:54:31;994;;;1.6;100
45789;BME280;31492;54.856;26.318;2022-12-29T10:59:50;993.9;;;1.6;100
45789;BME280;31492;54.856;26.318;2022-12-29T11:05:00;993.8;;;1.6;100
45789;BME280;31492;54.856;26.318;2022-12-29T11:09:48;993.8;;;1.6;100
45789;BME280;31492;54.856;26.318;2022-12-29T11:14:30;993.8;;;1.7;100
45789;BME280;31492;54.856;26.318;2022-12-29T11:19:30;993.7;;;1.6;100
45789;BME280;31492;54.856;26.318;2022-12-29T11:24:30;993.7;;;1.6;100
45789;BME280;31492;54.856;26.318;2022-12-29T11:29:40;993.7;;;1.6;100
45789;BME280;31492;54.856;26.318;2022-12-29T11:34:50;993.8;;;1.6;100
45789;BME280;31492;54.856;26.318;2022-12-29T11:39:40;993.8;;;1.6;100
45789;BME280;31492;54.856;26.318;2022-12-29T11:44:41;993.7;;;1.6;100
45789;BME280;31492;54.856;26.318;2022-12-29T11:49:30;993.7;;;1.5;100
45789;BME280;31492;54.856;26.318;2022-12-29T11:54:40;993.6;;;1.5;100
45789;BME280;31492;54.856;26.318;2022-12-29T11:59:39;993.6;;;1.5;100
45789;BME280;31492;54.856;26.318;2022-12-29T12:04:38;993.6;;;1.6;100
45789;BME280;31492;54.856;26.318;2022-12-29T12:09:31;993.6;;;1.6;100
45789;BME280;31492;54.856;26.318;2022-12-29T12:14:43;993.5;;;1.6;100
45789;BME280;31492;54.856;26.318;2022-12-29T12:19:31;993.5;;;1.6;100
45789;BME280;31492;54.856;26.318;2022-12-29T12:24:35;993.5;;;1.6;100
45789;BME280;31492;54.856;26.318;2022-12-29T12:29:41;993.5;;;1.6;100
45789;BME280;31492;54.856;26.318;2022-12-29T12:34:30;993.5;;;1.6;100
45789;BME280;31492;54.856;26.318;2022-12-29T12:39:49;993.5;;;1.7;100
45789;BME280;31492;54.856;26.318;2022-12-29T12:44:32;993.5;;;1.7;100
45789;BME280;31492;54.856;26.318;2022-12-29T12:49:34;993.5;;;1.6;100
45789;BME280;31492;54.856;26.318;2022-12-29T12:54:53;993.6;;;1.7;100
45789;BME280;31492;54.856;26.318;2022-12-29T12:59:42;993.6;;;1.7;100
45789;BME280;31492;54.856;26.318;2022-12-29T13:04:39;993.6;;;1.7;100
45789;BME280;31492;54.856;26.318;2022-12-29T13:09:57;993.5;;;1.7;100
45789;BME280;31492;54.856;26.318;2022-12-29T13:14:52;993.6;;;1.7;100
45789;BME280;31492;54.856;26.318;2022-12-29T13:19:49;993.6;;;1.7;100
45789;BME280;31492;54.856;26.318;2022-12-29T13:24:52;993.5;;;1.7;100
45789;BME280;31492;54.856;26.318;2022-12-29T13:29:54;993.5;;;1.7;100
45789;BME280;31492;54.856;26.318;2022-12-29T13:34:32;993.5;;;1.7;100
45789;BME280;31492;54.856;26.318;2022-12-29T13:39:31;993.5;;;1.7;100
45789;BME280;31492;54.856;26.318;2022-12-29T13:44:31;993.5;;;1.7;100
45789;BME280;31492;54.856;26.318;2022-12-29T13:49:30;993.5;;;1.8;100
45789;BME280;31492;54.856;26.318;2022-12-29T13:54:40;993.5;;;1.8;100
45789;BME280;31492;54.856;26.318;2022-12-29T13:59:40;993.5;;;1.8;100
45789;BME280;31492;54.856;26.318;2022-12-29T14:04:58;993.5;;;1.8;100
45789;BME280;31492;54.856;26.318;2022-12-29T14:09:46;993.5;;;1.8;100
45789;BME280;31492;54.856;26.318;2022-12-29T14:14:30;993.5;;;1.8;100
45789;BME280;31492;54.856;26.318;2022-12-29T14:19:51;993.6;;;1.7;100
45789;BME280;31492;54.856;26.318;2022-12-29T14:24:41;993.7;;;1.7;100
45789;BME280;31492;54.856;26.318;2022-12-29T14:29:44;993.6;;;1.8;100
45789;BME280;31492;54.856;26.318;2022-12-29T14:34:36;993.7;;;1.7;100
45789;BME280;31492;54.856;26.318;2022-12-29T14:39:31;993.7;;;1.8;100
45789;BME280;31492;54.856;26.318;2022-12-29T14:44:30;993.6;;;1.8;100
45789;BME280;31492;54.856;26.318;2022-12-29T14:49:31;993.6;;;1.8;100
45789;BME280;31492;54.856;26.318;2022-12-29T14:54:41;993.6;;;1.8;100
45789;BME280;31492;54.856;26.318;2022-12-29T14:59:30;993.5;;;1.8;100
45789;BME280;31492;54.856;26.318;2022-12-29T15:04:30;993.4;;;1.8;100
45789;BME280;31492;54.856;26.318;2022-12-29T15:09:50;993.4;;;1.7;100
45789;BME280;31492;54.856;26.318;2022-12-29T15:14:47;993.4;;;1.7;100
45789;BME280;31492;54.856;26.318;2022-12-29T15:19:30;993.4;;;1.7;100
45789;BME280;31492;54.856;26.318;2022-12-29T15:24:49;993.4;;;1.7;100
45789;BME280;31492;54.856;26.318;2022-12-29T15:29:31;993.3;;;1.7;100
45789;BME280;31492;54.856;26.318;2022-12-29T15:34:40;993.3;;;1.6;100
45789;BME280;31492;54.856;26.318;2022-12-29T15:39:30;993.1;;;1.7;100
45789;BME280;31492;54.856;26.318;2022-12-29T15:44:31;993.2;;;1.6;100
45789;BME280;31492;54.856;26.318;2022-12-29T15:49:40;993.3;;;1.6;100
45789;BME280;31492;54.856;26.318;2022-12-29T15:54:40;993.2;;;1.6;100
45789;BME280;31492;54.856;26.318;2022-12-29T15:59:45;993.2;;;1.6;100
45789;BME280;31492;54.856;26.318;2022-12-29T16:04:30;993.2;;;1.6;100
45789;BME280;31492;54.856;26.318;2022-12-29T16:09:42;993.3;;;1.6;100
45789;BME280;31492;54.856;26.318;2022-12-29T16:14:39;993.3;;;1.6;100
45789;BME280;31492;54.856;26.318;2022-12-29T16:19:32;993.4;;;1.6;100
45789;BME280;31492;54.856;26.318;2022-12-29T16:24:31;993.4;;;1.6;100
45789;BME280;31492;54.856;26.318;2022-12-29T16:29:40;993.4;;;1.6;100
45789;BME280;31492;54.856;26.318;2022-12-29T16:34:30;993.3;;;1.5;100
45789;BME280;31492;54.856;26.318;2022-12-29T16:39:38;993.3;;;1.6;100
45789;BME280;31492;54.856;26.318;2022-12-29T16:44:30;993.2;;;1.6;100
45789;BME280;31492;54.856;26.318;2022-12-29T16:49:30;993.1;;;1.6;100
45789;BME280;31492;54.856;26.318;2022-12-29T16:54:40;993;;;1.6;100
45789;BME280;31492;54.856;26.318;2022-12-29T16:59:40;993.1;;;1.6;100
45789;BME280;31492;54.856;26.318;2022-12-29T17:04:40;993.1;;;1.7;100
45789;BME280;31492;54.856;26.318;2022-12-29T17:09:40;993.1;;;1.6;100
45789;BME280;31492;54.856;26.318;2022-12-29T17:14:51;993.2;;;1.6;100
45789;BME280;31492;54.856;26.318;2022-12-29T17:19:40;993.2;;;1.6;100
45789;BME280;31492;54.856;26.318;2022-12-29T17:24:28;993.1;;;1.6;100
45789;BME280;31492;54.856;26.318;2022-12-29T17:29:50;992.9;;;1.5;100
45789;BME280;31492;54.856;26.318;2022-12-29T17:34:48;992.8;;;1.5;100
45789;BME280;31492;54.856;26.318;2022-12-29T17:39:30;992.8;;;1.5;100
45789;BME280;31492;54.856;26.318;2022-12-29T17:45:02;992.8;;;1.5;100
45789;BME280;31492;54.856;26.318;2022-12-29T17:49:40;992.7;;;1.6;100
45789;BME280;31492;54.856;26.318;2022-12-29T17:54:38;992.7;;;1.6;100
45789;BME280;31492;54.856;26.318;2022-12-29T18:00:00;992.7;;;1.6;100
45789;BME280;31492;54.856;26.318;2022-12-29T18:04:30;992.7;;;1.6;100
45789;BME280;31492;54.856;26.318;2022-12-29T18:09:50;992.6;;;1.6;100
45789;BME280;31492;54.856;26.318;2022-12-29T18:14:30;992.6;;;1.6;100
45789;BME280;31492;54.856;26.318;2022-12-29T18:19:52;992.6;;;1.6;100
45789;BME280;31492;54.856;26.318;2022-12-29T18:24:50;992.6;;;1.6;100
45789;BME280;31492;54.856;26.318;2022-12-29T18:29:38;992.6;;;1.6;100
45789;BME280;31492;54.856;26.318;2022-12-29T18:34:52;992.6;;;1.6;100
45789;BME280;31492;54.856;26.318;2022-12-29T18:39:40;992.7;;;1.6;100
45789;BME280;31492;54.856;26.318;2022-12-29T18:44:30;992.8;;;1.6;100
45789;BME280;31492;54.856;26.318;2022-12-29T18:49:50;992.8;;;1.6;100
45789;BME280;31492;54.856;26.318;2022-12-29T18:54:50;992.8;;;1.6;100
45789;BME280;31492;54.856;26.318;2022-12-29T18:59:30;992.8;;;1.6;100
45789;BME280;31492;54.856;26.318;2022-12-29T19:04:30;992.8;;;1.6;100
45789;BME280;31492;54.856;26.318;2022-12-29T19:09:38;992.8;;;1.7;100
45789;BME280;31492;54.856;26.318;2022-12-29T19:14:48;992.8;;;1.7;100
45789;BME280;31492;54.856;26.318;2022-12-29T19:19:30;992.8;;;1.6;100
45789;BME280;31492;54.856;26.318;2022-12-29T19:24:50;992.7;;;1.7;100
45789;BME280;31492;54.856;26.318;2022-12-29T19:30:00;992.6;;;1.7;100
45789;BME280;31492;54.856;26.318;2022-12-29T19:34:31;992.6;;;1.7;100
45789;BME280;31492;54.856;26.318;2022-12-29T19:39:30;992.5;;;1.7;100
45789;BME280;31492;54.856;26.318;2022-12-29T19:44:50;992.5;;;1.7;100
45789;BME280;31492;54.856;26.318;2022-12-29T19:49:40;992.5;;;1.7;100
45789;BME280;31492;54.856;26.318;2022-12-29T19:54:30;992.4;;;1.7;100
45789;BME280;31492;54.856;26.318;2022-12-29T19:59:30;992.4;;;1.8;100
45789;BME280;31492;54.856;26.318;2022-12-29T20:04:40;992.4;;;1.8;100
45789;BME280;31492;54.856;26.318;2022-12-29T20:09:30;992.5;;;1.7;100
45789;BME280;31492;54.856;26.318;2022-12-29T20:14:41;992.5;;;1.7;100
45789;BME280;31492;54.856;26.318;2022-12-29T20:19:40;992.5;;;1.8;100
45789;BME280;31492;54.856;26.318;2022-12-29T20:24:30;992.5;;;1.8;100
45789;BME280;31492;54.856;26.318;2022-12-29T20:29:30;992.5;;;1.8;100
45789;BME280;31492;54.856;26.318;2022-12-29T20:34:30;992.5;;;1.8;100
45789;BME280;31492;54.856;26.318;2022-12-29T20:39:30;992.5;;;1.9;100
45789;BME280;31492;54.856;26.318;2022-12-29T20:44:50;992.5;;;1.9;100
45789;BME280;31492;54.856;26.318;2022-12-29T20:49:30;992.5;;;1.9;100
45789;BME280;31492;54.856;26.318;2022-12-29T20:54:30;992.5;;;1.8;100
45789;BME280;31492;54.856;26.318;2022-12-29T20:59:48;992.4;;;1.9;100
45789;BME280;31492;54.856;26.318;2022-12-29T21:04:40;992.4;;;1.9;100
45789;BME280;31492;54.856;26.318;2022-12-29T21:09:38;992.4;;;1.8;100
45789;BME280;31492;54.856;26.318;2022-12-29T21:14:30;992.4;;;1.9;100
45789;BME280;31492;54.856;26.318;2022-12-29T21:19:50;992.4;;;1.9;100
45789;BME280;31492;54.856;26.318;2022-12-29T21:24:40;992.4;;;1.9;100
45789;BME280;31492;54.856;26.318;2022-12-29T21:29:30;992.4;;;2;100
45789;BME280;31492;54.856;26.318;2022-12-29T21:34:52;992.4;;;2;100
45789;BME280;31492;54.856;26.318;2022-12-29T21:39:40;992.4;;;2;100
45789;BME280;31492;54.856;26.318;2022-12-29T21:45:12;992.4;;;2;100
45789;BME280;31492;54.856;26.318;2022-12-29T21:49:40;992.4;;;2;100
45789;BME280;31492;54.856;26.318;2022-12-29T21:54:40;992.4;;;2.1;100
45789;BME280;31492;54.856;26.318;2022-12-29T21:59:40;992.4;;;2;100
45789;BME280;31492;54.856;26.318;2022-12-29T22:04:38;992.4;;;2.1;100
45789;BME280;31492;54.856;26.318;2022-12-29T22:09:30;992.3;;;2.1;100
45789;BME280;31492;54.856;26.318;2022-12-29T22:14:30;992.3;;;2.1;100
45789;BME280;31492;54.856;26.318;2022-12-29T22:19:30;992.3;;;2.1;100
45789;BME280;31492;54.856;26.318;2022-12-29T22:24:30;992.3;;;2.2;100
45789;BME280;31492;54.856;26.318;2022-12-29T22:29:30;992.3;;;2.1;100
45789;BME280;31492;54.856;26.318;2022-12-29T22:34:40;992.3;;;2.2;100
45789;BME280;31492;54.856;26.318;2022-12-29T22:39:30;992.2;;;2.1;100
45789;BME280;31492;54.856;26.318;2022-12-29T22:44:30;992.2;;;2.1;100
45789;BME280;31492;54.856;26.318;2022-12-29T22:50:12;992.3;;;2.1;100
